createdAt,value
2022-08-24T00:00:31.644Z,44.11
2022-08-24T00:03:36.825Z,44.75
2022-08-24T00:06:43.717Z,44.60
2022-08-24T00:09:49.532Z,44.40
2022-08-24T00:12:58.455Z,44.54
2022-08-24T00:16:04.270Z,44.81
2022-08-24T00:19:10.982Z,44.84
2022-08-24T00:22:16.826Z,44.71
2022-08-24T00:25:24.924Z,44.62
2022-08-24T00:28:30.211Z,44.80
2022-08-24T00:31:37.125Z,44.77
2022-08-24T00:34:56.152Z,44.73
2022-08-24T00:37:51.268Z,44.95
2022-08-24T00:41:01.870Z,45.04
2022-08-24T00:44:14.161Z,45.42
2022-08-24T00:47:29.281Z,45.70
2022-08-24T00:50:42.615Z,45.82
2022-08-24T00:53:54.122Z,45.71
2022-08-24T00:57:03.758Z,45.61
2022-08-24T01:00:14.034Z,45.68
2022-08-24T01:03:20.876Z,45.40
2022-08-24T01:06:26.602Z,45.85
2022-08-24T01:09:31.419Z,46.18
2022-08-24T01:12:32.792Z,46.02
2022-08-24T01:15:27.232Z,46.15
2022-08-24T01:18:53.257Z,46.00
2022-08-24T01:22:18.993Z,45.89
2022-08-24T01:25:25.831Z,45.71
2022-08-24T01:28:33.147Z,45.71
2022-08-24T01:31:38.933Z,45.55
2022-08-24T01:34:44.724Z,45.10
2022-08-24T01:37:49.959Z,44.70
2022-08-24T01:41:03.075Z,44.23
2022-08-24T01:44:09.421Z,43.83
2022-08-24T01:47:16.186Z,43.02
2022-08-24T01:50:22.076Z,42.81
2022-08-24T01:53:29.221Z,42.50
2022-08-24T01:56:38.153Z,42.07
2022-08-24T01:59:43.013Z,41.89
2022-08-24T02:02:42.606Z,41.72
2022-08-24T02:05:35.997Z,41.47
2022-08-24T02:08:43.807Z,41.04
2022-08-24T02:11:50.708Z,41.38
2022-08-24T02:14:59.243Z,41.02
2022-08-24T02:18:04.560Z,40.87
2022-08-24T02:21:11.359Z,40.59
2022-08-24T02:24:18.760Z,40.49
2022-08-24T02:27:23.822Z,40.67
2022-08-24T02:30:29.620Z,40.53
2022-08-24T02:33:35.386Z,40.43
2022-08-24T02:36:42.248Z,40.38
2022-08-24T02:39:48.071Z,40.51
2022-08-24T02:42:54.737Z,40.43
2022-08-24T02:46:01.455Z,40.41
2022-08-24T02:49:11.297Z,40.52
2022-08-24T02:52:15.491Z,40.61
2022-08-24T02:55:21.413Z,40.52
2022-08-24T02:58:27.965Z,40.58
2022-08-24T03:01:33.688Z,40.54
2022-08-24T03:04:38.735Z,40.49
2022-08-24T03:07:45.620Z,40.46
2022-08-24T03:10:52.407Z,40.60
2022-08-24T03:13:58.925Z,41.64
2022-08-24T03:17:05.313Z,42.21
2022-08-24T03:20:10.631Z,42.92
2022-08-24T03:23:17.217Z,43.58
2022-08-24T03:26:22.961Z,43.78
2022-08-24T03:29:24.203Z,44.00
2022-08-24T03:32:09.986Z,43.93
2022-08-24T03:35:02.238Z,43.78
2022-08-24T03:37:48.022Z,44.30
2022-08-24T03:40:40.566Z,44.07
2022-08-24T03:43:59.657Z,43.90
2022-08-24T03:47:05.111Z,43.66
2022-08-24T03:50:10.091Z,43.36
2022-08-24T03:53:15.144Z,43.30
2022-08-24T03:56:20.924Z,43.11
2022-08-24T03:59:27.456Z,42.92
2022-08-24T04:02:33.742Z,42.61
2022-08-24T04:05:39.159Z,43.02
2022-08-24T04:08:46.891Z,42.77
2022-08-24T04:11:53.670Z,42.14
2022-08-24T04:15:02.281Z,42.01
2022-08-24T04:18:08.819Z,41.65
2022-08-24T04:21:14.933Z,41.50
2022-08-24T04:24:21.330Z,41.23
2022-08-24T04:27:27.390Z,40.63
2022-08-24T04:30:33.101Z,40.25
2022-08-24T04:33:41.580Z,39.54
2022-08-24T04:36:47.081Z,39.35
2022-08-24T04:39:53.119Z,39.33
2022-08-24T04:43:01.431Z,39.30
2022-08-24T04:46:10.030Z,39.31
2022-08-24T04:49:15.728Z,38.97
2022-08-24T04:52:22.183Z,39.42
2022-08-24T04:55:27.872Z,38.33
2022-08-24T04:58:34.319Z,37.14
2022-08-24T05:01:42.086Z,36.49
2022-08-24T05:04:47.633Z,36.72
2022-08-24T05:07:56.565Z,36.59
2022-08-24T05:11:02.878Z,36.51
2022-08-24T05:14:11.191Z,36.28
2022-08-24T05:17:19.278Z,35.63
2022-08-24T05:20:28.395Z,36.18
2022-08-24T05:23:37.093Z,35.61
2022-08-24T05:26:45.239Z,34.79
2022-08-24T05:29:53.971Z,35.72
2022-08-24T05:32:59.495Z,35.33
2022-08-24T05:36:06.126Z,34.81
2022-08-24T05:39:12.865Z,34.94
2022-08-24T05:42:20.442Z,34.90
2022-08-24T05:45:25.268Z,34.09
2022-08-24T05:48:30.793Z,33.32
2022-08-24T05:51:39.021Z,33.82
2022-08-24T05:54:44.052Z,34.18
2022-08-24T05:57:51.924Z,33.66
2022-08-24T06:00:58.553Z,33.54
2022-08-24T06:04:05.992Z,34.48
2022-08-24T06:07:11.774Z,34.30
2022-08-24T06:10:35.994Z,33.86
2022-08-24T06:13:26.701Z,33.16
2022-08-24T06:16:34.064Z,32.79
2022-08-24T06:19:39.692Z,33.22
2022-08-24T06:22:45.126Z,33.46
2022-08-24T06:26:15.262Z,32.38
2022-08-24T06:29:18.382Z,32.30
2022-08-24T06:32:25.882Z,31.46
2022-08-24T06:35:31.241Z,33.01
2022-08-24T06:38:37.929Z,33.80
2022-08-24T06:41:45.412Z,31.82
2022-08-24T06:44:54.829Z,32.30
2022-08-24T06:48:02.618Z,33.36
2022-08-24T06:51:09.265Z,30.70
2022-08-24T06:54:15.224Z,29.86
2022-08-24T06:57:20.783Z,30.45
2022-08-24T07:00:27.555Z,30.01
2022-08-24T07:03:33.300Z,31.57
2022-08-24T07:06:41.392Z,29.02
2022-08-24T07:09:46.888Z,29.53
2022-08-24T07:12:53.969Z,29.36
2022-08-24T07:16:06.001Z,29.41
2022-08-24T07:19:16.506Z,29.56
2022-08-24T07:22:23.254Z,28.87
2022-08-24T07:25:28.853Z,29.54
2022-08-24T07:28:35.804Z,29.64
2022-08-24T07:31:42.318Z,28.76
2022-08-24T07:34:58.547Z,29.31
2022-08-24T07:38:11.702Z,28.28
2022-08-24T07:44:38.641Z,28.56
2022-08-24T07:47:56.277Z,28.70
2022-08-24T07:51:17.698Z,28.38
2022-08-24T07:54:25.470Z,28.39
2022-08-24T07:57:31.701Z,27.89
2022-08-24T08:00:37.394Z,28.39
2022-08-24T08:03:44.627Z,28.59
2022-08-24T08:06:53.841Z,29.42
2022-08-24T08:10:00.773Z,28.18
2022-08-24T08:13:09.228Z,28.90
2022-08-24T08:16:15.768Z,29.25
2022-08-24T08:19:21.121Z,29.04
2022-08-24T08:22:39.006Z,28.01
2022-08-24T08:25:47.471Z,27.62
2022-08-24T08:28:57.095Z,27.55
2022-08-24T08:32:03.448Z,28.35
2022-08-24T08:35:10.089Z,27.97
2022-08-24T08:38:16.518Z,26.98
2022-08-24T08:41:45.695Z,26.87
2022-08-24T08:45:21.514Z,26.50
2022-08-24T08:48:43.834Z,26.49
2022-08-24T08:52:32.289Z,27.33
2022-08-24T08:56:13.298Z,26.72
2022-08-24T08:59:29.569Z,27.07
2022-08-24T09:02:55.719Z,27.87
2022-08-24T09:06:31.338Z,26.71
2022-08-24T09:09:57.369Z,26.46
2022-08-24T09:13:30.999Z,26.66
2022-08-24T09:17:21.637Z,26.36
2022-08-24T09:20:43.675Z,26.96
2022-08-24T09:24:18.026Z,26.57
2022-08-24T09:27:42.154Z,26.97
2022-08-24T09:30:52.591Z,26.64
2022-08-24T09:34:05.000Z,26.59
2022-08-24T09:37:20.360Z,27.39
2022-08-24T09:40:18.713Z,26.80
2022-08-24T09:44:10.385Z,26.73
2022-08-24T09:47:20.104Z,25.53
2022-08-24T09:51:03.738Z,25.50
2022-08-24T09:54:37.632Z,25.81
2022-08-24T09:58:11.286Z,25.96
2022-08-24T10:01:57.724Z,24.16
2022-08-24T10:05:17.433Z,25.68
2022-08-24T10:09:23.995Z,24.16
2022-08-24T10:13:14.351Z,23.53
2022-08-24T10:16:43.968Z,24.05
2022-08-24T10:20:31.389Z,23.38
2022-08-24T10:24:29.605Z,23.86
2022-08-24T10:27:42.215Z,23.77
2022-08-24T10:31:01.491Z,23.09
2022-08-24T10:34:24.706Z,23.73
2022-08-24T10:37:43.550Z,22.69
2022-08-24T10:41:01.317Z,24.39
2022-08-24T10:44:52.270Z,22.94
2022-08-24T10:48:03.095Z,23.13
2022-08-24T10:51:35.421Z,23.22
2022-08-24T10:54:41.031Z,22.06
2022-08-24T10:57:56.799Z,21.98
2022-08-24T11:00:58.215Z,21.17
2022-08-24T11:04:13.937Z,21.45
2022-08-24T11:07:35.642Z,21.15
2022-08-24T11:10:43.410Z,21.00
2022-08-24T11:13:49.207Z,20.79
2022-08-24T11:16:58.077Z,21.32
2022-08-24T11:20:06.426Z,22.49
2022-08-24T11:23:18.970Z,20.84
2022-08-24T11:26:34.759Z,20.17
2022-08-24T11:30:04.703Z,19.54
2022-08-24T11:33:18.937Z,20.55
2022-08-24T11:36:31.561Z,20.89
2022-08-24T11:39:43.735Z,20.89
2022-08-24T11:43:19.205Z,21.91
2022-08-24T11:46:45.062Z,20.01
2022-08-24T11:50:00.730Z,20.25
2022-08-24T11:53:30.880Z,20.51
2022-08-24T11:57:05.250Z,19.67
2022-08-24T12:00:26.324Z,20.16
2022-08-24T12:04:07.370Z,20.64
2022-08-24T12:07:22.350Z,20.74
2022-08-24T12:10:55.408Z,19.51
2022-08-24T12:14:38.778Z,20.48
2022-08-24T12:18:26.143Z,20.38
2022-08-24T12:21:36.290Z,20.38
2022-08-24T12:25:15.436Z,19.95
2022-08-24T12:28:23.555Z,21.25
2022-08-24T12:31:51.704Z,21.26
2022-08-24T12:35:35.648Z,20.88
2022-08-24T12:38:46.810Z,21.09
2022-08-24T12:42:21.771Z,21.23
2022-08-24T12:45:30.355Z,20.09
2022-08-24T12:49:01.956Z,19.61
2022-08-24T12:52:28.335Z,20.50
2022-08-24T12:56:02.447Z,20.50
2022-08-24T12:59:39.366Z,20.91
2022-08-24T13:02:56.612Z,20.09
2022-08-24T13:06:06.660Z,20.74
2022-08-24T13:09:31.412Z,20.68
2022-08-24T13:13:01.404Z,20.52
2022-08-24T13:16:11.175Z,20.40
2022-08-24T13:19:33.618Z,21.01
2022-08-24T13:23:08.199Z,20.85
2022-08-24T13:26:40.063Z,20.71
2022-08-24T13:29:49.643Z,20.46
2022-08-24T13:33:00.550Z,20.56
2022-08-24T13:36:16.596Z,20.50
2022-08-24T13:40:09.858Z,20.88
2022-08-24T13:43:39.644Z,20.88
2022-08-24T13:47:25.548Z,21.42
2022-08-24T13:51:07.543Z,21.42
2022-08-24T13:54:38.186Z,21.72
2022-08-24T13:57:59.339Z,21.72
2022-08-24T14:01:33.053Z,20.98
2022-08-24T14:04:56.375Z,21.72
2022-08-24T14:08:30.310Z,21.34
2022-08-24T14:12:02.151Z,20.87
2022-08-24T14:15:46.931Z,21.44
2022-08-24T14:19:17.129Z,21.44
2022-08-24T14:22:29.342Z,21.56
2022-08-24T14:25:44.472Z,21.78
2022-08-24T14:28:58.122Z,21.27
2022-08-24T14:32:12.933Z,21.27
2022-08-24T14:35:37.770Z,20.84
2022-08-24T14:39:00.450Z,21.48
2022-08-24T14:42:34.874Z,22.04
2022-08-24T14:46:20.357Z,22.89
2022-08-24T14:49:51.882Z,22.12
2022-08-24T14:53:04.459Z,22.12
2022-08-24T14:56:25.022Z,21.91
2022-08-24T14:59:54.610Z,21.03
2022-08-24T15:03:40.910Z,20.98
2022-08-24T15:07:09.081Z,21.29
2022-08-24T15:10:17.179Z,20.92
2022-08-24T15:13:29.265Z,21.50
2022-08-24T15:16:55.551Z,21.25
2022-08-24T15:20:26.688Z,21.59
2022-08-24T15:24:10.008Z,21.70
2022-08-24T15:27:50.721Z,22.48
2022-08-24T15:31:05.733Z,22.40
2022-08-24T15:34:15.193Z,21.73
2022-08-24T15:37:22.778Z,21.98
2022-08-24T15:40:39.959Z,21.65
2022-08-24T15:43:48.887Z,21.88
2022-08-24T15:47:01.802Z,21.93
2022-08-24T15:50:16.040Z,22.06
2022-08-24T15:53:23.108Z,21.92
2022-08-24T15:56:47.407Z,22.23
2022-08-24T15:59:58.470Z,22.82
2022-08-24T16:03:08.546Z,23.15
2022-08-24T16:06:16.429Z,23.24
2022-08-24T16:09:37.248Z,23.13
2022-08-24T16:12:42.083Z,23.11
2022-08-24T16:15:47.865Z,23.27
2022-08-24T16:19:12.695Z,23.38
2022-08-24T16:22:23.214Z,23.40
2022-08-24T16:25:34.893Z,23.56
2022-08-24T16:28:47.770Z,23.80
2022-08-24T16:32:05.126Z,23.79
2022-08-24T16:35:27.750Z,23.90
2022-08-24T16:38:35.919Z,24.02
2022-08-24T16:41:45.517Z,24.03
2022-08-24T16:44:57.163Z,24.26
2022-08-24T16:48:05.155Z,24.46
2022-08-24T16:51:12.887Z,24.79
2022-08-24T16:54:19.061Z,25.07
2022-08-24T16:57:30.028Z,25.22
2022-08-24T17:00:39.458Z,25.89
2022-08-24T17:03:45.160Z,26.28
2022-08-24T17:06:50.898Z,26.55
2022-08-24T17:09:58.772Z,27.03
2022-08-24T17:13:04.957Z,27.48
2022-08-24T17:16:10.961Z,27.52
2022-08-24T17:19:19.297Z,28.13
2022-08-24T17:22:27.677Z,28.32
2022-08-24T17:25:38.230Z,28.13
2022-08-24T17:28:45.843Z,28.68
2022-08-24T17:31:52.785Z,28.99
2022-08-24T17:34:59.074Z,29.35
2022-08-24T17:38:05.247Z,29.62
2022-08-24T17:41:11.327Z,29.80
2022-08-24T17:44:20.445Z,30.06
2022-08-24T17:47:25.200Z,30.20
2022-08-24T17:50:31.169Z,30.51
2022-08-24T17:53:36.688Z,30.52
2022-08-24T17:56:45.901Z,30.56
2022-08-24T17:59:51.751Z,30.62
2022-08-24T18:02:57.362Z,30.31
2022-08-24T18:06:03.565Z,30.43
2022-08-24T18:09:11.454Z,30.28
2022-08-24T18:12:17.662Z,30.28
2022-08-24T18:15:34.614Z,30.13
2022-08-24T18:18:30.685Z,30.00
2022-08-24T18:21:35.783Z,30.08
2022-08-24T18:24:41.135Z,30.02
2022-08-24T18:27:46.899Z,29.90
2022-08-24T18:30:52.860Z,30.22
2022-08-24T18:33:58.222Z,30.27
2022-08-24T18:37:04.152Z,30.36
2022-08-24T18:40:08.832Z,30.33
2022-08-24T18:43:16.310Z,30.32
2022-08-24T18:46:22.443Z,30.32
2022-08-24T18:49:27.953Z,30.50
2022-08-24T18:52:34.620Z,30.48
2022-08-24T18:55:40.175Z,30.68
2022-08-24T18:58:46.192Z,30.46
2022-08-24T19:02:09.467Z,30.33
2022-08-24T19:05:24.898Z,30.46
2022-08-24T19:08:31.691Z,30.35
2022-08-24T19:11:38.571Z,30.44
2022-08-24T19:14:46.496Z,30.58
2022-08-24T19:17:51.379Z,30.51
2022-08-24T19:20:52.585Z,30.73
2022-08-24T19:23:59.446Z,30.65
2022-08-24T19:27:04.870Z,30.74
2022-08-24T19:30:11.741Z,30.89
2022-08-24T19:33:18.010Z,31.01
2022-08-24T19:36:23.962Z,31.00
2022-08-24T19:39:31.679Z,31.12
2022-08-24T19:42:35.543Z,31.01
2022-08-24T19:46:00.309Z,30.83
2022-08-24T19:49:06.025Z,30.90
2022-08-24T19:52:13.356Z,30.74
2022-08-24T19:55:24.089Z,30.82
2022-08-24T19:58:45.385Z,30.17
2022-08-24T20:01:52.112Z,30.20
2022-08-24T20:04:56.980Z,30.12
2022-08-24T20:08:03.336Z,30.24
2022-08-24T20:11:09.243Z,29.94
2022-08-24T20:14:15.355Z,29.82
2022-08-24T20:17:20.964Z,30.03
2022-08-24T20:20:27.914Z,29.76
2022-08-24T20:23:33.237Z,29.36
2022-08-24T20:26:38.648Z,29.51
2022-08-24T20:29:44.067Z,28.96
2022-08-24T20:32:49.263Z,28.81
2022-08-24T20:35:54.832Z,28.64
2022-08-24T20:39:01.784Z,29.28
2022-08-24T20:42:10.894Z,29.73
2022-08-24T20:45:15.175Z,29.74
2022-08-24T20:48:21.622Z,29.34
2022-08-24T20:51:27.328Z,29.36
2022-08-24T20:54:37.685Z,28.88
2022-08-24T20:57:40.122Z,28.90
2022-08-24T21:00:47.923Z,28.88
2022-08-24T21:03:54.762Z,29.23
2022-08-24T21:07:01.249Z,29.17
2022-08-24T21:10:07.929Z,29.48
2022-08-24T21:13:14.373Z,30.03
2022-08-24T21:16:22.267Z,30.18
2022-08-24T21:19:28.433Z,30.08
2022-08-24T21:22:34.150Z,30.08
2022-08-24T21:25:39.829Z,30.26
2022-08-24T21:28:45.457Z,30.17
2022-08-24T21:31:53.848Z,30.88
2022-08-24T21:34:59.514Z,31.09
2022-08-24T21:38:05.907Z,30.86
2022-08-24T21:41:13.853Z,31.00
2022-08-24T21:44:19.365Z,31.43
2022-08-24T21:47:24.753Z,31.33
2022-08-24T21:50:30.459Z,31.21
2022-08-24T21:53:35.693Z,31.31
2022-08-24T21:56:42.970Z,31.37
2022-08-24T21:59:48.911Z,31.42
2022-08-24T22:02:49.309Z,31.37
2022-08-24T22:05:56.296Z,31.41
2022-08-24T22:09:02.012Z,31.49
2022-08-24T22:12:07.673Z,31.62
2022-08-24T22:15:13.764Z,31.83
2022-08-24T22:18:19.986Z,32.45
2022-08-24T22:21:29.485Z,32.52
2022-08-24T22:24:34.581Z,32.53
2022-08-24T22:27:40.084Z,33.15
2022-08-24T22:30:48.128Z,32.66
2022-08-24T22:33:54.434Z,32.76
2022-08-24T22:37:02.248Z,32.71
2022-08-24T22:40:12.378Z,33.28
2022-08-24T22:43:15.245Z,33.64
2022-08-24T22:46:21.015Z,33.69
2022-08-24T22:49:26.594Z,33.84
2022-08-24T22:52:33.243Z,33.83
2022-08-24T22:55:39.529Z,33.85
2022-08-24T22:58:45.416Z,33.58
2022-08-24T23:01:54.422Z,33.57
2022-08-24T23:05:02.224Z,33.71
2022-08-24T23:08:08.068Z,33.56
2022-08-24T23:11:14.733Z,33.38
2022-08-24T23:14:21.322Z,33.09
2022-08-24T23:17:27.675Z,32.60
2022-08-24T23:20:33.670Z,32.46
2022-08-24T23:23:40.029Z,32.47
2022-08-24T23:26:45.930Z,32.96
2022-08-24T23:29:46.156Z,33.07
2022-08-24T23:32:51.398Z,33.08
2022-08-24T23:35:56.640Z,33.36
2022-08-24T23:39:05.509Z,33.31
2022-08-24T23:42:10.549Z,33.53
2022-08-24T23:45:16.058Z,33.55
2022-08-24T23:48:22.127Z,33.71
2022-08-24T23:51:30.281Z,33.84
2022-08-24T23:54:36.127Z,34.09
2022-08-24T23:57:41.487Z,34.24
